Time;durP1;ratioP1;P1;durP2;ratioP2;P2;SDS_P1;SDS_P2;PMS_P1;PMS_P2;Temp;Humidity;BMP_temperature;BMP_pressure;BME280_temperature;BME280_humidity;BME280_pressure;Samples;Min_cycle;Max_cycle;Signal;HPM_P1;HPM_P2
2022/11/12 15:13:47;;;;;;;;;34.75;33.00;;;;;12.68;92.89;102101.53;5088758;27;45516;-82
2022/11/12 15:16:20;;;;;;;;;29.75;29.00;;;;;12.81;93.32;102106.56;5068421;28;45438;-84
2022/11/12 15:19:04;;;;;;;;;33.25;32.50;;;;;12.92;93.45;102104.44;5068209;28;45457;-84
2022/11/12 15:21:30;;;;;;;;;30.50;28.50;;;;;12.99;93.09;102097.69;5043224;28;45741;-83
2022/11/12 15:24:15;;;;;;;;;33.75;31.50;;;;;13.16;93.16;102107.31;5048089;28;45619;-84
2022/11/12 15:26:44;;;;;;;;;33.50;32.25;;;;;13.11;92.94;102067.50;5046558;28;45704;-84
2022/11/12 15:29:09;;;;;;;;;26.75;26.25;;;;;13.37;93.43;102104.75;5046751;28;45691;-83
2022/11/12 15:31:44;;;;;;;;;35.00;32.00;;;;;13.33;93.34;102081.69;5068318;28;45609;-83
2022/11/12 15:34:23;;;;;;;;;32.50;30.75;;;;;13.55;92.82;102102.94;5067465;28;45409;-84
2022/11/12 15:36:49;;;;;;;;;30.50;28.75;;;;;13.48;92.62;102073.53;5068045;28;46190;-84
2022/11/12 15:39:14;;;;;;;;;26.75;26.00;;;;;13.68;92.51;102096.44;5068331;28;45413;-83
2022/11/12 15:41:40;;;;;;;;;31.33;30.67;;;;;13.57;92.59;102064.28;5068360;28;45470;-85
2022/11/12 15:44:08;;;;;;;;;32.00;28.50;;;;;13.77;92.57;102093.31;5067970;28;45571;-81
2022/11/12 15:46:34;;;;;;;;;32.75;30.00;;;;;13.76;92.49;102076.56;5062376;28;46037;-82
2022/11/12 15:48:59;;;;;;;;;36.50;30.75;;;;;13.91;91.85;102093.06;5047231;28;45693;-82
2022/11/12 15:51:24;;;;;;;;;33.67;31.00;;;;;13.96;91.73;102084.44;5047961;28;52454;-84
2022/11/12 15:53:49;;;;;;;;;30.00;29.25;;;;;13.97;91.84;102084.47;5029518;28;48178;-83
2022/11/12 15:56:18;;;;;;;;;31.00;30.67;;;;;13.84;91.76;102055.72;5047009;28;62623;-83
2022/11/12 15:58:43;;;;;;;;;33.50;31.75;;;;;14.01;91.13;102082.88;5048056;28;45562;-84
2022/11/12 16:01:10;;;;;;;;;32.25;31.00;;;;;14.01;91.44;102077.59;5047481;28;45425;-81
2022/11/12 16:03:35;;;;;;;;;31.25;30.25;;;;;13.94;91.23;102061.47;5047297;28;45992;-83
2022/11/12 16:06:00;;;;;;;;;32.00;31.00;;;;;14.00;90.78;102074.06;5046162;28;63317;-82
2022/11/12 16:08:26;;;;;;;;;32.00;31.50;;;;;13.98;90.63;102073.06;5051077;28;45356;-81
2022/11/12 16:10:51;;;;;;;;;25.33;23.33;;;;;13.93;90.82;102074.63;5055028;28;59678;-84
2022/11/12 16:13:27;;;;;;;;;34.75;32.00;;;;;13.82;90.76;102058.31;5045999;28;47132;-84
2022/11/12 16:15:52;;;;;;;;;35.00;32.25;;;;;13.94;90.60;102082.63;5045569;28;46256;-82
2022/11/12 16:18:18;;;;;;;;;28.50;28.00;;;;;13.82;90.28;102063.59;5046053;28;45656;-82
2022/11/12 16:20:44;;;;;;;;;39.00;35.00;;;;;13.82;90.80;102066.25;5026886;28;45367;-83
2022/11/12 16:23:09;;;;;;;;;33.75;32.25;;;;;13.76;90.69;102058.06;5040591;28;50124;-83
2022/11/12 16:25:37;;;;;;;;;39.75;35.00;;;;;13.83;90.07;102077.72;5030777;28;45406;-81
2022/11/12 16:28:04;;;;;;;;;42.25;35.00;;;;;13.84;90.56;102079.50;5031336;28;45318;-83
2022/11/12 16:30:32;;;;;;;;;47.75;39.75;;;;;13.66;90.37;102056.75;5022150;28;46188;-83
2022/11/12 16:32:59;;;;;;;;;48.00;38.75;;;;;13.76;90.40;102079.19;5032437;28;46162;-81
2022/11/12 16:35:26;;;;;;;;;41.25;36.25;;;;;13.73;90.13;102081.69;5024868;28;45919;-81
2022/11/12 16:37:53;;;;;;;;;42.75;37.50;;;;;13.63;90.03;102083.03;5013296;28;45815;-82
2022/11/12 16:40:27;;;;;;;;;46.25;37.75;;;;;13.61;90.73;102079.44;5019932;28;45417;-83
2022/11/12 16:42:52;;;;;;;;;40.00;35.75;;;;;13.53;90.72;102064.09;5024665;28;46432;-82
2022/11/12 16:45:22;;;;;;;;;48.00;39.00;;;;;13.61;90.67;102086.47;5032350;28;60983;-82
2022/11/12 16:47:53;;;;;;;;;44.00;37.75;;;;;13.59;90.60;102082.84;5027988;28;45504;-83
2022/11/12 16:50:24;;;;;;;;;48.50;39.75;;;;;13.55;90.32;102083.56;5019475;28;45363;-82
2022/11/12 16:52:51;;;;;;;;;42.75;38.00;;;;;13.54;90.11;102079.97;5013391;28;46301;-82
2022/11/12 16:55:16;;;;;;;;;43.50;37.50;;;;;13.50;90.56;102080.72;5020605;28;45914;-82
2022/11/12 16:57:42;;;;;;;;;41.75;36.50;;;;;13.46;89.86;102078.78;5024435;28;45418;-81
2022/11/12 17:00:16;;;;;;;;;43.33;36.00;;;;;13.42;89.44;102076.81;5018430;28;56248;-83
2022/11/12 17:02:42;;;;;;;;;41.25;36.00;;;;;13.36;89.61;102074.81;5014952;28;46254;-81
2022/11/12 17:05:19;;;;;;;;;41.25;36.75;;;;;13.31;89.62;102071.06;5018881;28;45815;-82
2022/11/12 17:07:45;;;;;;;;;41.25;35.75;;;;;13.09;89.92;102029.56;5017714;28;45842;-83
2022/11/12 17:10:10;;;;;;;;;49.00;41.75;;;;;13.18;89.56;102058.09;5017361;28;45923;-80
2022/11/12 17:12:36;;;;;;;;;45.25;39.00;;;;;13.15;89.25;102052.69;5026897;28;46932;-82
2022/11/12 17:15:01;;;;;;;;;53.00;44.25;;;;;13.14;89.84;102053.53;5038342;28;45951;-82
2022/11/12 17:17:27;;;;;;;;;51.25;42.25;;;;;13.10;90.24;102062.13;5038103;28;45544;-80
2022/11/12 17:19:52;;;;;;;;;51.00;42.33;;;;;13.06;89.55;102053.19;5042802;28;45592;-85
2022/11/12 17:22:19;;;;;;;;;49.67;40.67;;;;;13.04;88.91;102065.41;5042458;28;70199;-82
2022/11/12 17:24:44;;;;;;;;;54.50;45.00;;;;;12.89;89.18;102044.47;5040918;28;45401;-80
2022/11/12 17:27:10;;;;;;;;;52.00;43.50;;;;;12.87;89.52;102043.53;5028912;28;46017;-80
2022/11/12 17:29:35;;;;;;;;;50.25;41.75;;;;;12.97;89.58;102062.44;5033708;28;45810;-83
2022/11/12 17:32:00;;;;;;;;;50.00;42.00;;;;;12.93;89.18;102057.84;5035967;28;46094;-81
2022/11/12 17:34:26;;;;;;;;;52.00;43.75;;;;;12.88;89.08;102054.97;5039889;28;45575;-79
2022/11/12 17:36:51;;;;;;;;;59.00;48.33;;;;;12.85;89.69;102052.19;5032298;28;49639;-79
2022/11/12 17:39:16;;;;;;;;;57.67;45.67;;;;;12.71;89.41;102040.09;5043759;28;56009;-80
2022/11/12 17:41:41;;;;;;;;;62.33;49.00;;;;;12.72;88.96;102052.47;5051740;28;60798;-80
2022/11/12 17:44:07;;;;;;;;;64.67;53.00;;;;;12.77;89.35;102059.75;5028701;28;50282;-80
2022/11/12 17:46:33;;;;;;;;;62.67;51.00;;;;;12.64;88.91;102036.28;5044864;28;45745;-81
2022/11/12 17:48:58;;;;;;;;;64.00;52.00;;;;;12.70;89.07;102049.75;5050918;28;45684;-82
2022/11/12 17:51:26;;;;;;;;;69.50;56.25;;;;;12.54;89.41;102028.75;5043191;28;45418;-80
2022/11/12 17:53:52;;;;;;;;;66.25;54.00;;;;;12.51;89.20;102023.34;5038038;28;45564;-82
2022/11/12 17:56:20;;;;;;;;;71.00;56.50;;;;;12.48;89.28;102023.22;5036789;28;45827;-81
2022/11/12 17:58:47;;;;;;;;;68.75;56.25;;;;;12.62;89.13;102054.69;5032607;28;45745;-81
2022/11/12 18:01:25;;;;;;;;;70.75;56.50;;;;;12.57;88.57;102050.03;5050608;28;45757;-81
2022/11/12 18:03:53;;;;;;;;;72.75;58.25;;;;;12.53;88.98;102045.41;5032665;28;45851;-83
2022/11/12 18:06:21;;;;;;;;;72.00;57.25;;;;;12.28;89.39;102006.44;5050774;28;45371;-82
2022/11/12 18:08:55;;;;;;;;;72.00;56.00;;;;;12.45;88.60;102046.78;5046495;28;45398;-82
2022/11/12 18:11:21;;;;;;;;;79.75;64.00;;;;;12.40;88.69;102049.19;5046216;28;47279;-83
2022/11/12 18:13:47;;;;;;;;;74.50;58.50;;;;;12.29;88.40;102048.69;5049520;28;45772;-82
2022/11/12 18:16:30;;;;;;;;;75.50;58.50;;;;;12.35;88.76;102048.97;5048489;28;45729;-85
2022/11/12 18:18:56;;;;;;;;;76.00;60.50;;;;;12.28;88.49;102057.44;5032945;28;53268;-82
2022/11/12 18:21:23;;;;;;;;;73.50;57.75;;;;;12.29;88.20;102060.97;5047145;28;45526;-84
2022/11/12 18:23:49;;;;;;;;;77.75;63.25;;;;;12.25;88.58;102065.19;5031182;28;45458;-83
2022/11/12 18:26:19;;;;;;;;;80.25;63.75;;;;;12.23;88.25;102065.94;5044918;28;45448;-84
2022/11/12 18:28:56;;;;;;;;;76.75;62.50;;;;;12.20;88.26;102063.16;5051935;28;45614;-83
2022/11/12 18:31:23;;;;;;;;;81.00;69.25;;;;;12.18;88.21;102062.19;5051289;28;45449;-82
2022/11/12 18:33:49;;;;;;;;;79.50;66.00;;;;;12.17;88.64;102060.34;5051433;28;45617;-81
2022/11/12 18:36:17;;;;;;;;;79.75;67.25;;;;;12.15;88.76;102065.56;5045256;28;45603;-83
2022/11/12 18:38:43;;;;;;;;;81.25;71.50;;;;;12.07;88.43;102051.13;5044321;28;45617;-82
2022/11/12 18:41:11;;;;;;;;;81.75;72.75;;;;;12.10;88.00;102061.78;5044050;28;45443;-82
2022/11/12 18:43:38;;;;;;;;;85.75;74.00;;;;;12.00;87.98;102041.09;5029588;28;45664;-82
2022/11/12 18:46:04;;;;;;;;;89.25;82.00;;;;;11.84;88.30;102020.97;5037464;28;45410;-83
2022/11/12 18:48:33;;;;;;;;;88.75;83.00;;;;;12.04;88.34;102058.84;5030018;28;45520;-83
2022/11/12 18:51:00;;;;;;;;;90.50;83.75;;;;;11.93;88.31;102046.88;5040234;28;46438;-81
2022/11/12 18:53:26;;;;;;;;;102.00;93.75;;;;;11.90;88.31;102036.19;5051569;28;45528;-84
2022/11/12 18:55:53;;;;;;;;;99.50;91.25;;;;;11.85;88.25;102036.84;5045363;28;45307;-84
2022/11/12 18:58:18;;;;;;;;;93.25;86.00;;;;;11.93;88.00;102050.44;5051671;28;45576;-82
2022/11/12 19:00:43;;;;;;;;;90.67;82.33;;;;;11.78;88.11;102034.72;5050442;28;61419;-83
2022/11/12 19:03:09;;;;;;;;;88.00;77.67;;;;;11.87;88.30;102045.75;5049408;28;51432;-83
2022/11/12 19:05:34;;;;;;;;;82.67;70.67;;;;;11.91;88.44;102051.16;5041756;28;45484;-82
2022/11/12 19:07:59;;;;;;;;;86.50;76.50;;;;;11.65;87.94;102000.69;5030439;28;45466;-82
2022/11/12 19:10:24;;;;;;;;;97.33;87.67;;;;;11.87;87.89;102037.84;5050173;28;66762;-82
2022/11/12 19:12:50;;;;;;;;;88.00;81.67;;;;;11.84;87.58;102037.69;5048407;28;57421;-82
2022/11/12 19:15:15;;;;;;;;;94.33;89.00;;;;;11.76;87.66;102028.44;5038475;28;46836;-81
2022/11/12 19:17:41;;;;;;;;;91.00;88.67;;;;;11.79;87.97;102043.53;5042599;28;48331;-82
2022/11/12 19:20:07;;;;;;;;;98.25;87.50;;;;;11.49;88.28;101990.22;5039470;28;45955;-81
2022/11/12 19:22:33;;;;;;;;;108.25;97.75;;;;;11.73;88.10;102023.06;5043381;28;45479;-83
2022/11/12 19:25:01;;;;;;;;;106.50;99.00;;;;;11.62;87.64;102011.06;5048205;28;45297;-82
2022/11/12 19:27:27;;;;;;;;;99.75;93.75;;;;;11.76;87.89;102031.09;5031082;28;45771;-81
2022/11/12 19:29:53;;;;;;;;;98.75;92.75;;;;;11.60;87.94;102012.72;5046921;28;46335;-81
2022/11/12 19:32:19;;;;;;;;;98.25;92.00;;;;;11.65;87.68;102034.91;5046840;28;45497;-81
2022/11/12 19:34:44;;;;;;;;;101.25;91.00;;;;;11.40;87.61;101985.38;5047137;28;45521;-83
2022/11/12 19:37:10;;;;;;;;;108.25;98.75;;;;;11.45;87.52;101994.41;5043025;28;45509;-82
2022/11/12 19:39:36;;;;;;;;;108.33;104.67;;;;;11.30;87.40;101978.75;5031818;28;45754;-83
2022/11/12 19:42:01;;;;;;;;;118.00;110.50;;;;;11.41;87.25;101991.53;5030793;28;45971;-84
2022/11/12 19:44:26;;;;;;;;;124.50;111.75;;;;;11.61;87.65;102032.94;5050482;28;45509;-82
2022/11/12 19:46:52;;;;;;;;;121.00;113.25;;;;;11.57;87.97;102023.09;5025910;28;45356;-83
2022/11/12 19:49:17;;;;;;;;;121.67;111.33;;;;;11.57;87.09;102026.63;5040921;28;46175;-84
2022/11/12 19:51:43;;;;;;;;;120.50;113.00;;;;;11.32;87.47;101984.06;5049144;28;45581;-84
2022/11/12 19:54:09;;;;;;;;;113.00;106.50;;;;;11.50;87.20;102020.97;5050018;28;45410;-84
2022/11/12 19:56:34;;;;;;;;;113.25;105.25;;;;;11.02;87.11;101949.19;5050684;28;45459;-84
2022/11/12 19:58:59;;;;;;;;;117.25;110.50;;;;;11.09;87.18;101961.84;5051207;28;46035;-84
2022/11/12 20:01:25;;;;;;;;;122.25;110.75;;;;;11.14;87.05;101970.88;5053680;28;45445;-84
2022/11/12 20:03:50;;;;;;;;;116.67;104.00;;;;;11.30;87.03;101999.78;5053524;28;45232;-81
2022/11/12 20:06:18;;;;;;;;;115.00;104.00;;;;;10.98;87.44;101942.84;5035720;28;45692;-81
2022/11/12 20:08:44;;;;;;;;;94.00;87.00;;;;;11.38;87.40;102016.00;5053127;28;45787;-82
2022/11/12 20:11:10;;;;;;;;;100.75;96.50;;;;;11.32;87.44;102008.66;5053495;28;45489;-82
2022/11/12 20:13:36;;;;;;;;;104.25;98.00;;;;;11.35;87.08;102010.56;5054002;28;45840;-81
2022/11/12 20:16:10;;;;;;;;;104.75;94.50;;;;;11.02;87.20;101942.19;5052942;28;45714;-80
2022/11/12 20:18:35;;;;;;;;;98.75;93.50;;;;;10.92;87.00;101931.13;5053804;28;45706;-80
2022/11/12 20:21:03;;;;;;;;;101.75;98.25;;;;;10.84;87.14;101918.50;5053536;28;45604;-84
2022/11/12 20:23:30;;;;;;;;;110.25;101.75;;;;;10.89;86.87;101925.72;5053811;28;45526;-81
2022/11/12 20:26:05;;;;;;;;;119.75;112.50;;;;;11.11;87.64;101965.44;5053781;28;45379;-81
2022/11/12 20:28:35;;;;;;;;;140.25;129.25;;;;;11.00;88.21;101948.22;5051400;28;45780;-81
2022/11/12 20:31:06;;;;;;;;;111.50;105.00;;;;;10.68;87.53;101884.31;5029739;28;45575;-82
2022/11/12 20:33:32;;;;;;;;;106.25;102.00;;;;;10.71;87.65;101886.22;5032464;28;47049;-81
2022/11/12 20:36:06;;;;;;;;;123.75;118.00;;;;;10.72;88.18;101895.88;5033226;28;45494;-81
2022/11/12 20:38:34;;;;;;;;;118.75;111.50;;;;;10.88;88.14;101924.78;5033709;28;45496;-80
2022/11/12 20:41:01;;;;;;;;;118.00;109.25;;;;;10.77;87.27;101916.34;5032108;28;45484;-82
2022/11/12 20:43:27;;;;;;;;;121.50;113.50;;;;;11.26;87.58;101991.66;5034582;28;45548;-80
2022/11/12 20:45:52;;;;;;;;;128.25;116.50;;;;;11.02;87.11;101967.59;5052357;28;45524;-80
2022/11/12 20:48:19;;;;;;;;;129.33;117.00;;;;;10.96;87.23;101951.50;5034483;28;59002;-81
2022/11/12 20:50:45;;;;;;;;;119.50;113.00;;;;;10.67;87.17;101898.28;5052941;28;45414;-80
2022/11/12 20:53:11;;;;;;;;;119.50;114.00;;;;;10.67;86.85;101903.53;5052557;28;45523;-80
2022/11/12 20:55:37;;;;;;;;;126.00;118.75;;;;;10.65;86.90;101910.44;5053403;28;45647;-80
2022/11/12 20:58:02;;;;;;;;;143.50;130.50;;;;;10.65;87.15;101915.72;5052654;28;45473;-80
2022/11/12 21:00:27;;;;;;;;;150.00;136.33;;;;;10.67;87.31;101915.78;5052904;28;45473;-81
2022/11/12 21:02:52;;;;;;;;;142.00;130.00;;;;;10.85;87.07;101938.69;5052977;28;45681;-82
2022/11/12 21:05:18;;;;;;;;;145.67;135.67;;;;;11.15;88.15;101991.09;5036772;28;45492;-81
2022/11/12 21:07:43;;;;;;;;;129.00;121.67;;;;;11.19;88.13;101990.44;5052818;28;50540;-81
2022/11/12 21:10:08;;;;;;;;;138.00;122.00;;;;;10.87;87.52;101936.13;5052522;28;45501;-81
2022/11/12 21:12:34;;;;;;;;;128.75;119.00;;;;;10.63;87.50;101895.41;5031920;28;45554;-80
2022/11/12 21:14:59;;;;;;;;;128.00;118.00;;;;;11.17;87.23;101988.53;5032264;28;45466;-81
2022/11/12 21:17:25;;;;;;;;;123.67;119.67;;;;;11.14;87.01;101991.94;5032795;28;57777;-81
2022/11/12 21:19:54;;;;;;;;;134.25;124.75;;;;;11.05;86.78;101978.28;5022802;28;46849;-80
2022/11/12 21:22:19;;;;;;;;;130.25;120.00;;;;;10.98;86.64;101973.53;5016691;28;45505;-81
2022/11/12 21:24:45;;;;;;;;;130.00;123.50;;;;;10.99;86.62;101980.63;5012931;28;45438;-81
2022/11/12 21:27:10;;;;;;;;;126.67;118.67;;;;;10.92;86.80;101965.31;5012782;28;46155;-81
2022/11/12 21:29:36;;;;;;;;;131.25;122.50;;;;;10.98;86.42;101984.03;5012357;28;45392;-80
2022/11/12 21:32:08;;;;;;;;;128.75;119.00;;;;;10.90;86.39;101972.22;5015367;28;45763;-84
2022/11/12 21:34:34;;;;;;;;;131.25;124.50;;;;;10.90;86.57;101975.75;5033613;28;45368;-82
2022/11/12 21:37:00;;;;;;;;;117.00;108.00;;;;;10.87;86.11;101978.22;5032747;28;46200;-80
2022/11/12 21:39:25;;;;;;;;;142.50;130.75;;;;;10.80;86.65;101968.22;5013983;28;45384;-81
2022/11/12 21:41:53;;;;;;;;;132.75;122.50;;;;;10.61;86.63;101945.28;5012854;28;45434;-81
2022/11/12 21:44:19;;;;;;;;;139.00;128.50;;;;;10.78;86.97;101972.47;5012630;28;45984;-81
2022/11/12 21:46:44;;;;;;;;;135.50;132.50;;;;;10.67;86.76;101955.22;5012580;28;45975;-82
2022/11/12 21:49:10;;;;;;;;;141.67;133.00;;;;;10.79;87.01;101969.94;5011684;28;60595;-81
2022/11/12 21:51:35;;;;;;;;;126.25;119.25;;;;;10.75;86.71;101962.72;5030510;28;45575;-81
2022/11/12 21:54:04;;;;;;;;;128.00;119.00;;;;;10.76;86.42;101966.22;5032626;28;51025;-82
2022/11/12 21:56:31;;;;;;;;;125.00;119.00;;;;;10.74;86.46;101973.16;5033181;28;45547;-81
2022/11/12 21:59:00;;;;;;;;;121.25;109.25;;;;;10.67;86.22;101961.38;5032229;28;45449;-82
2022/11/12 22:01:32;;;;;;;;;125.50;114.50;;;;;10.62;86.07;101952.34;5032790;28;45435;-83
2022/11/12 22:04:00;;;;;;;;;125.50;119.75;;;;;10.66;86.28;101964.84;5032998;28;45902;-82
2022/11/12 22:06:28;;;;;;;;;131.50;123.50;;;;;10.62;86.38;101952.34;5032577;28;46260;-81
2022/11/12 22:08:55;;;;;;;;;126.00;120.25;;;;;10.59;86.19;101958.34;5032026;28;45551;-82
2022/11/12 22:11:20;;;;;;;;;132.00;125.00;;;;;10.61;86.46;101963.69;5031435;28;45470;-82
2022/11/12 22:13:46;;;;;;;;;131.75;125.00;;;;;10.58;85.87;101956.53;5030093;28;45669;-81
2022/11/12 22:16:20;;;;;;;;;125.33;120.33;;;;;10.48;86.09;101932.28;5031783;28;57029;-81
2022/11/12 22:18:48;;;;;;;;;141.25;127.25;;;;;10.55;86.20;101945.88;5032162;28;45556;-80
2022/11/12 22:21:19;;;;;;;;;132.25;119.25;;;;;10.55;85.92;101950.22;5031527;28;45576;-81
2022/11/12 22:23:44;;;;;;;;;130.75;123.25;;;;;10.43;86.30;101928.50;5032413;28;45709;-80
2022/11/12 22:26:12;;;;;;;;;134.25;122.25;;;;;10.49;86.18;101942.91;5032047;28;45576;-81
2022/11/12 22:28:38;;;;;;;;;129.00;118.25;;;;;10.38;86.21;101920.38;5032123;28;45563;-81
2022/11/12 22:31:09;;;;;;;;;123.75;111.50;;;;;10.49;86.36;101948.16;5031706;28;45430;-81
2022/11/12 22:33:34;;;;;;;;;124.00;114.50;;;;;10.50;86.21;101939.47;5032291;28;45449;-81
2022/11/12 22:36:08;;;;;;;;;121.75;112.50;;;;;10.46;86.09;101928.69;5031325;28;45362;-82
2022/11/12 22:38:42;;;;;;;;;126.75;117.75;;;;;10.35;86.13;101906.19;5032550;28;45487;-81
2022/11/12 22:41:10;;;;;;;;;115.50;111.50;;;;;10.46;85.89;101933.94;5030733;28;45410;-81
2022/11/12 22:43:36;;;;;;;;;124.50;115.75;;;;;10.38;85.79;101922.09;5032192;28;45528;-82
2022/11/12 22:46:23;;;;;;;;;132.75;121.75;;;;;10.38;85.67;101927.38;5031309;28;45461;-82
2022/11/12 22:48:49;;;;;;;;;135.50;123.50;;;;;10.37;85.68;101930.81;5031886;28;45555;-82
2022/11/12 22:51:17;;;;;;;;;126.25;115.25;;;;;10.32;85.53;101933.19;5031687;28;45434;-83
2022/11/12 22:53:43;;;;;;;;;145.50;131.75;;;;;10.32;85.50;101933.19;5030644;28;45488;-82
2022/11/12 22:56:11;;;;;;;;;137.50;128.75;;;;;10.21;85.62;101919.44;5022708;28;45942;-83
2022/11/12 22:58:37;;;;;;;;;140.50;133.00;;;;;10.22;85.48;101921.25;5018956;28;45475;-81
2022/11/12 23:01:04;;;;;;;;;137.75;131.25;;;;;10.25;85.62;101931.97;5015368;28;45640;-83
2022/11/12 23:03:31;;;;;;;;;146.75;135.00;;;;;10.24;85.38;101929.22;5032781;28;45399;-80
2022/11/12 23:06:02;;;;;;;;;138.50;130.25;;;;;10.18;85.51;101921.00;5046465;28;47388;-81
2022/11/12 23:08:28;;;;;;;;;148.75;132.00;;;;;10.22;85.54;101925.59;5030421;28;45394;-81
2022/11/12 23:10:54;;;;;;;;;139.25;131.25;;;;;10.18;85.84;101921.88;5031238;28;45898;-81
2022/11/12 23:13:20;;;;;;;;;152.50;136.25;;;;;10.11;85.46;101905.72;5045789;28;45423;-82
2022/11/12 23:15:46;;;;;;;;;139.50;132.25;;;;;9.97;85.52;101881.31;5048191;28;45386;-82
2022/11/12 23:18:11;;;;;;;;;142.25;132.00;;;;;10.17;85.44;101911.31;5033591;28;45520;-82
2022/11/12 23:20:36;;;;;;;;;145.67;135.67;;;;;10.14;85.58;101908.50;5050360;28;45525;-82
2022/11/12 23:23:02;;;;;;;;;139.25;131.00;;;;;10.13;85.20;101910.22;5051985;28;45562;-82
2022/11/12 23:25:28;;;;;;;;;138.00;132.75;;;;;10.11;85.45;101903.09;5051077;28;45859;-81
2022/11/12 23:27:54;;;;;;;;;144.50;137.00;;;;;10.07;85.15;101892.41;5050462;28;45336;-81
2022/11/12 23:30:19;;;;;;;;;146.00;128.33;;;;;10.02;85.27;101892.97;5047040;28;53132;-81
2022/11/12 23:32:44;;;;;;;;;125.00;115.67;;;;;10.05;85.50;101893.16;5046504;28;47382;-81
2022/11/12 23:35:09;;;;;;;;;122.67;114.67;;;;;10.00;85.36;101898.16;5051809;28;71518;-82
2022/11/12 23:37:35;;;;;;;;;129.25;118.00;;;;;9.92;85.61;101890.66;5055449;28;45787;-81
2022/11/12 23:40:00;;;;;;;;;122.25;114.25;;;;;9.95;85.62;101881.25;5035610;28;45936;-82
2022/11/12 23:42:27;;;;;;;;;122.33;113.00;;;;;10.01;85.93;101899.97;5054651;28;45774;-82
2022/11/12 23:44:52;;;;;;;;;111.75;106.25;;;;;10.01;85.60;101894.72;5050326;28;45509;-81
2022/11/12 23:47:18;;;;;;;;;121.25;110.00;;;;;10.00;85.43;101891.97;5044206;28;45472;-83
2022/11/12 23:49:43;;;;;;;;;120.50;114.50;;;;;10.00;85.34;101902.47;5050864;28;51194;-82
2022/11/12 23:52:08;;;;;;;;;121.00;112.33;;;;;9.95;85.62;101889.13;5052002;28;52872;-81
2022/11/12 23:54:34;;;;;;;;;129.00;113.67;;;;;9.97;85.29;101902.31;5054295;28;49439;-82
2022/11/12 23:56:59;;;;;;;;;120.33;108.67;;;;;9.83;85.34;101876.19;5054022;28;45651;-81
2022/11/12 23:59:25;;;;;;;;;114.75;108.50;;;;;9.92;85.09;101895.91;5054656;28;45507;-82
